sensor_id;sensor_type;location;lat;lon;timestamp;temperature;humidity
75621;DHT22;64574;48.506;-2.750;2023-12-28T00:00:27;10.20;77.20
75621;DHT22;64574;48.506;-2.750;2023-12-28T00:02:53;10.20;76.90
75621;DHT22;64574;48.506;-2.750;2023-12-28T00:05:19;10.20;76.90
75621;DHT22;64574;48.506;-2.750;2023-12-28T00:07:44;10.20;76.90
75621;DHT22;64574;48.506;-2.750;2023-12-28T00:10:10;10.20;76.70
75621;DHT22;64574;48.506;-2.750;2023-12-28T00:12:36;10.20;76.60
75621;DHT22;64574;48.506;-2.750;2023-12-28T00:15:02;10.10;76.50
75621;DHT22;64574;48.506;-2.750;2023-12-28T00:17:28;10.10;76.50
75621;DHT22;64574;48.506;-2.750;2023-12-28T00:19:53;10.10;76.20
75621;DHT22;64574;48.506;-2.750;2023-12-28T00:22:19;10.10;76.30
75621;DHT22;64574;48.506;-2.750;2023-12-28T00:24:45;10.10;76.30
75621;DHT22;64574;48.506;-2.750;2023-12-28T00:27:11;10.10;76.40
75621;DHT22;64574;48.506;-2.750;2023-12-28T00:29:37;10.10;76.40
75621;DHT22;64574;48.506;-2.750;2023-12-28T00:32:07;10.00;76.50
75621;DHT22;64574;48.506;-2.750;2023-12-28T00:34:33;10.00;76.50
75621;DHT22;64574;48.506;-2.750;2023-12-28T00:36:58;10.00;76.50
75621;DHT22;64574;48.506;-2.750;2023-12-28T00:39:24;10.00;76.50
75621;DHT22;64574;48.506;-2.750;2023-12-28T00:41:50;10.00;76.50
75621;DHT22;64574;48.506;-2.750;2023-12-28T00:44:15;10.00;76.50
75621;DHT22;64574;48.506;-2.750;2023-12-28T00:46:41;10.00;76.60
75621;DHT22;64574;48.506;-2.750;2023-12-28T00:49:07;10.00;76.60
75621;DHT22;64574;48.506;-2.750;2023-12-28T00:51:33;10.00;76.60
75621;DHT22;64574;48.506;-2.750;2023-12-28T00:53:59;10.00;76.50
75621;DHT22;64574;48.506;-2.750;2023-12-28T00:56:25;10.00;76.50
75621;DHT22;64574;48.506;-2.750;2023-12-28T00:58:50;10.00;76.60
75621;DHT22;64574;48.506;-2.750;2023-12-28T01:01:16;10.00;76.70
75621;DHT22;64574;48.506;-2.750;2023-12-28T01:03:41;10.00;76.70
75621;DHT22;64574;48.506;-2.750;2023-12-28T01:06:07;10.00;76.80
75621;DHT22;64574;48.506;-2.750;2023-12-28T01:08:33;9.90;76.90
75621;DHT22;64574;48.506;-2.750;2023-12-28T01:11:01;9.90;77.10
75621;DHT22;64574;48.506;-2.750;2023-12-28T01:13:28;9.90;77.20
75621;DHT22;64574;48.506;-2.750;2023-12-28T01:15:54;10.00;77.20
75621;DHT22;64574;48.506;-2.750;2023-12-28T01:18:20;10.00;77.10
75621;DHT22;64574;48.506;-2.750;2023-12-28T01:20:46;9.90;77.20
75621;DHT22;64574;48.506;-2.750;2023-12-28T01:23:11;9.90;77.20
75621;DHT22;64574;48.506;-2.750;2023-12-28T01:25:37;10.00;77.20
75621;DHT22;64574;48.506;-2.750;2023-12-28T01:28:03;10.00;77.40
75621;DHT22;64574;48.506;-2.750;2023-12-28T01:30:28;9.80;77.50
75621;DHT22;64574;48.506;-2.750;2023-12-28T01:32:54;9.80;77.50
75621;DHT22;64574;48.506;-2.750;2023-12-28T01:35:20;9.90;77.70
75621;DHT22;64574;48.506;-2.750;2023-12-28T01:37:46;9.90;77.50
75621;DHT22;64574;48.506;-2.750;2023-12-28T01:40:11;9.90;77.60
75621;DHT22;64574;48.506;-2.750;2023-12-28T01:42:37;9.90;77.70
75621;DHT22;64574;48.506;-2.750;2023-12-28T01:45:03;9.80;77.90
75621;DHT22;64574;48.506;-2.750;2023-12-28T01:47:30;9.80;78.10
75621;DHT22;64574;48.506;-2.750;2023-12-28T01:49:56;9.80;78.30
75621;DHT22;64574;48.506;-2.750;2023-12-28T01:52:23;9.80;78.40
75621;DHT22;64574;48.506;-2.750;2023-12-28T01:54:49;9.80;78.60
75621;DHT22;64574;48.506;-2.750;2023-12-28T01:57:15;9.80;78.70
75621;DHT22;64574;48.506;-2.750;2023-12-28T01:59:42;9.80;78.90
75621;DHT22;64574;48.506;-2.750;2023-12-28T02:02:08;9.80;78.80
75621;DHT22;64574;48.506;-2.750;2023-12-28T02:04:35;9.80;78.90
75621;DHT22;64574;48.506;-2.750;2023-12-28T02:07:07;9.80;78.80
75621;DHT22;64574;48.506;-2.750;2023-12-28T02:09:33;9.80;79.00
75621;DHT22;64574;48.506;-2.750;2023-12-28T02:11:59;9.80;79.20
75621;DHT22;64574;48.506;-2.750;2023-12-28T02:14:24;9.80;79.20
75621;DHT22;64574;48.506;-2.750;2023-12-28T02:19:31;9.80;79.20
75621;DHT22;64574;48.506;-2.750;2023-12-28T02:21:59;9.80;79.20
75621;DHT22;64574;48.506;-2.750;2023-12-28T02:24:25;9.80;79.10
75621;DHT22;64574;48.506;-2.750;2023-12-28T02:26:50;9.80;79.10
75621;DHT22;64574;48.506;-2.750;2023-12-28T02:29:16;9.80;79.10
75621;DHT22;64574;48.506;-2.750;2023-12-28T02:31:48;9.90;79.00
75621;DHT22;64574;48.506;-2.750;2023-12-28T02:34:21;9.80;79.00
75621;DHT22;64574;48.506;-2.750;2023-12-28T02:36:50;9.90;79.00
75621;DHT22;64574;48.506;-2.750;2023-12-28T02:39:17;9.80;79.10
75621;DHT22;64574;48.506;-2.750;2023-12-28T02:41:44;9.80;79.00
75621;DHT22;64574;48.506;-2.750;2023-12-28T02:44:10;9.80;79.20
75621;DHT22;64574;48.506;-2.750;2023-12-28T02:46:36;9.90;79.10
75621;DHT22;64574;48.506;-2.750;2023-12-28T02:49:01;9.90;79.10
75621;DHT22;64574;48.506;-2.750;2023-12-28T02:51:27;9.80;79.20
75621;DHT22;64574;48.506;-2.750;2023-12-28T02:53:53;9.80;79.30
75621;DHT22;64574;48.506;-2.750;2023-12-28T02:56:18;9.80;79.00
75621;DHT22;64574;48.506;-2.750;2023-12-28T02:58:44;9.80;79.00
75621;DHT22;64574;48.506;-2.750;2023-12-28T03:01:09;9.90;78.70
75621;DHT22;64574;48.506;-2.750;2023-12-28T03:03:35;9.80;78.60
75621;DHT22;64574;48.506;-2.750;2023-12-28T03:06:01;9.80;78.50
75621;DHT22;64574;48.506;-2.750;2023-12-28T03:08:26;9.80;78.20
75621;DHT22;64574;48.506;-2.750;2023-12-28T03:10:52;9.80;78.10
75621;DHT22;64574;48.506;-2.750;2023-12-28T03:13:18;9.80;77.80
75621;DHT22;64574;48.506;-2.750;2023-12-28T03:15:44;9.80;77.70
75621;DHT22;64574;48.506;-2.750;2023-12-28T03:18:09;9.80;77.90
75621;DHT22;64574;48.506;-2.750;2023-12-28T03:20:35;9.80;78.10
75621;DHT22;64574;48.506;-2.750;2023-12-28T03:23:00;9.80;78.30
75621;DHT22;64574;48.506;-2.750;2023-12-28T03:25:26;9.80;78.40
75621;DHT22;64574;48.506;-2.750;2023-12-28T03:27:52;9.80;78.60
75621;DHT22;64574;48.506;-2.750;2023-12-28T03:30:20;9.80;78.60
75621;DHT22;64574;48.506;-2.750;2023-12-28T03:32:45;9.80;78.70
75621;DHT22;64574;48.506;-2.750;2023-12-28T03:35:11;9.80;78.70
75621;DHT22;64574;48.506;-2.750;2023-12-28T03:37:37;9.80;78.60
75621;DHT22;64574;48.506;-2.750;2023-12-28T03:40:03;9.80;78.50
75621;DHT22;64574;48.506;-2.750;2023-12-28T03:42:28;9.80;78.50
75621;DHT22;64574;48.506;-2.750;2023-12-28T03:44:54;9.80;78.50
75621;DHT22;64574;48.506;-2.750;2023-12-28T03:47:19;9.80;78.50
75621;DHT22;64574;48.506;-2.750;2023-12-28T03:49:45;9.70;78.60
75621;DHT22;64574;48.506;-2.750;2023-12-28T03:52:11;9.70;78.50
75621;DHT22;64574;48.506;-2.750;2023-12-28T03:54:36;9.70;78.40
75621;DHT22;64574;48.506;-2.750;2023-12-28T03:57:02;9.70;78.40
75621;DHT22;64574;48.506;-2.750;2023-12-28T03:59:28;9.70;78.20
75621;DHT22;64574;48.506;-2.750;2023-12-28T04:01:53;9.70;78.20
75621;DHT22;64574;48.506;-2.750;2023-12-28T04:04:19;9.70;78.30
75621;DHT22;64574;48.506;-2.750;2023-12-28T04:06:45;9.70;78.00
75621;DHT22;64574;48.506;-2.750;2023-12-28T04:09:14;9.70;77.90
75621;DHT22;64574;48.506;-2.750;2023-12-28T04:11:40;9.70;78.00
75621;DHT22;64574;48.506;-2.750;2023-12-28T04:14:05;9.70;77.90
75621;DHT22;64574;48.506;-2.750;2023-12-28T04:16:31;9.70;77.90
75621;DHT22;64574;48.506;-2.750;2023-12-28T04:18:57;9.70;77.90
75621;DHT22;64574;48.506;-2.750;2023-12-28T04:21:22;9.70;77.80
75621;DHT22;64574;48.506;-2.750;2023-12-28T04:23:48;9.70;77.60
75621;DHT22;64574;48.506;-2.750;2023-12-28T04:26:18;9.70;77.60
75621;DHT22;64574;48.506;-2.750;2023-12-28T04:28:44;9.70;77.60
75621;DHT22;64574;48.506;-2.750;2023-12-28T04:31:10;9.80;77.30
75621;DHT22;64574;48.506;-2.750;2023-12-28T04:33:36;9.70;77.10
75621;DHT22;64574;48.506;-2.750;2023-12-28T04:36:02;9.80;77.00
75621;DHT22;64574;48.506;-2.750;2023-12-28T04:38:31;9.70;77.00
75621;DHT22;64574;48.506;-2.750;2023-12-28T04:40:58;9.70;77.00
75621;DHT22;64574;48.506;-2.750;2023-12-28T04:43:23;9.70;77.10
75621;DHT22;64574;48.506;-2.750;2023-12-28T04:45:50;9.70;77.10
75621;DHT22;64574;48.506;-2.750;2023-12-28T04:48:16;9.70;77.00
75621;DHT22;64574;48.506;-2.750;2023-12-28T04:50:49;9.70;76.90
75621;DHT22;64574;48.506;-2.750;2023-12-28T04:53:15;9.70;77.00
75621;DHT22;64574;48.506;-2.750;2023-12-28T04:55:41;9.70;77.00
75621;DHT22;64574;48.506;-2.750;2023-12-28T04:58:06;9.70;77.10
75621;DHT22;64574;48.506;-2.750;2023-12-28T05:00:32;9.70;77.10
75621;DHT22;64574;48.506;-2.750;2023-12-28T05:02:58;9.70;77.20
75621;DHT22;64574;48.506;-2.750;2023-12-28T05:05:24;9.70;77.30
75621;DHT22;64574;48.506;-2.750;2023-12-28T05:07:49;9.70;77.40
75621;DHT22;64574;48.506;-2.750;2023-12-28T05:10:15;9.70;77.50
75621;DHT22;64574;48.506;-2.750;2023-12-28T05:12:41;9.70;77.60
75621;DHT22;64574;48.506;-2.750;2023-12-28T05:15:06;9.70;77.70
75621;DHT22;64574;48.506;-2.750;2023-12-28T05:17:32;9.80;77.70
75621;DHT22;64574;48.506;-2.750;2023-12-28T05:19:58;9.70;77.70
75621;DHT22;64574;48.506;-2.750;2023-12-28T05:22:23;9.70;77.80
75621;DHT22;64574;48.506;-2.750;2023-12-28T05:24:49;9.70;77.90
75621;DHT22;64574;48.506;-2.750;2023-12-28T05:27:15;9.70;78.10
75621;DHT22;64574;48.506;-2.750;2023-12-28T05:29:40;9.60;78.20
75621;DHT22;64574;48.506;-2.750;2023-12-28T05:32:06;9.70;78.30
75621;DHT22;64574;48.506;-2.750;2023-12-28T05:34:31;9.60;78.40
75621;DHT22;64574;48.506;-2.750;2023-12-28T05:36:57;9.60;78.60
75621;DHT22;64574;48.506;-2.750;2023-12-28T05:39:23;9.60;78.50
75621;DHT22;64574;48.506;-2.750;2023-12-28T05:41:48;9.60;78.60
75621;DHT22;64574;48.506;-2.750;2023-12-28T05:44:16;9.70;78.70
75621;DHT22;64574;48.506;-2.750;2023-12-28T05:46:42;9.70;78.70
75621;DHT22;64574;48.506;-2.750;2023-12-28T05:49:07;9.60;78.80
75621;DHT22;64574;48.506;-2.750;2023-12-28T05:51:40;9.60;78.90
75621;DHT22;64574;48.506;-2.750;2023-12-28T05:54:06;9.70;78.80
75621;DHT22;64574;48.506;-2.750;2023-12-28T05:56:32;9.60;78.70
75621;DHT22;64574;48.506;-2.750;2023-12-28T05:58:58;9.60;78.90
75621;DHT22;64574;48.506;-2.750;2023-12-28T06:01:24;9.60;78.90
75621;DHT22;64574;48.506;-2.750;2023-12-28T06:03:49;9.60;78.80
75621;DHT22;64574;48.506;-2.750;2023-12-28T06:06:18;9.60;78.90
75621;DHT22;64574;48.506;-2.750;2023-12-28T06:08:43;9.60;78.90
75621;DHT22;64574;48.506;-2.750;2023-12-28T06:11:09;9.60;79.00
75621;DHT22;64574;48.506;-2.750;2023-12-28T06:13:35;9.60;78.90
75621;DHT22;64574;48.506;-2.750;2023-12-28T06:16:01;9.60;78.90
75621;DHT22;64574;48.506;-2.750;2023-12-28T06:18:26;9.60;79.00
75621;DHT22;64574;48.506;-2.750;2023-12-28T06:20:52;9.60;79.10
75621;DHT22;64574;48.506;-2.750;2023-12-28T06:23:18;9.60;79.00
75621;DHT22;64574;48.506;-2.750;2023-12-28T06:25:43;9.60;79.00
75621;DHT22;64574;48.506;-2.750;2023-12-28T06:28:09;9.60;78.90
75621;DHT22;64574;48.506;-2.750;2023-12-28T06:30:34;9.60;78.90
75621;DHT22;64574;48.506;-2.750;2023-12-28T06:33:00;9.60;79.00
75621;DHT22;64574;48.506;-2.750;2023-12-28T06:35:26;9.60;79.00
75621;DHT22;64574;48.506;-2.750;2023-12-28T06:37:51;9.60;78.90
75621;DHT22;64574;48.506;-2.750;2023-12-28T06:40:17;9.60;78.90
75621;DHT22;64574;48.506;-2.750;2023-12-28T06:42:42;9.50;78.90
75621;DHT22;64574;48.506;-2.750;2023-12-28T06:45:09;9.60;79.00
75621;DHT22;64574;48.506;-2.750;2023-12-28T06:47:35;9.50;79.00
75621;DHT22;64574;48.506;-2.750;2023-12-28T06:50:01;9.50;79.20
75621;DHT22;64574;48.506;-2.750;2023-12-28T06:52:27;9.50;79.10
75621;DHT22;64574;48.506;-2.750;2023-12-28T06:54:52;9.50;79.20
75621;DHT22;64574;48.506;-2.750;2023-12-28T06:57:19;9.50;79.30
75621;DHT22;64574;48.506;-2.750;2023-12-28T06:59:44;9.50;79.50
75621;DHT22;64574;48.506;-2.750;2023-12-28T07:02:10;9.50;79.30
75621;DHT22;64574;48.506;-2.750;2023-12-28T07:04:36;9.50;79.30
75621;DHT22;64574;48.506;-2.750;2023-12-28T07:07:01;9.50;79.20
75621;DHT22;64574;48.506;-2.750;2023-12-28T07:09:27;9.50;79.30
75621;DHT22;64574;48.506;-2.750;2023-12-28T07:11:53;9.50;79.20
75621;DHT22;64574;48.506;-2.750;2023-12-28T07:14:18;9.50;79.10
75621;DHT22;64574;48.506;-2.750;2023-12-28T07:16:44;9.40;79.20
75621;DHT22;64574;48.506;-2.750;2023-12-28T07:19:10;9.50;79.30
75621;DHT22;64574;48.506;-2.750;2023-12-28T07:21:36;9.50;79.10
75621;DHT22;64574;48.506;-2.750;2023-12-28T07:24:02;9.50;79.10
75621;DHT22;64574;48.506;-2.750;2023-12-28T07:26:28;9.50;79.10
75621;DHT22;64574;48.506;-2.750;2023-12-28T07:28:53;9.50;79.10
75621;DHT22;64574;48.506;-2.750;2023-12-28T07:31:26;9.50;79.10
75621;DHT22;64574;48.506;-2.750;2023-12-28T07:33:52;9.50;79.10
75621;DHT22;64574;48.506;-2.750;2023-12-28T07:36:19;9.50;79.10
75621;DHT22;64574;48.506;-2.750;2023-12-28T07:38:45;9.50;79.20
75621;DHT22;64574;48.506;-2.750;2023-12-28T07:41:11;9.50;79.10
75621;DHT22;64574;48.506;-2.750;2023-12-28T07:43:36;9.50;79.00
75621;DHT22;64574;48.506;-2.750;2023-12-28T07:46:02;9.60;78.80
75621;DHT22;64574;48.506;-2.750;2023-12-28T07:48:28;9.60;78.70
75621;DHT22;64574;48.506;-2.750;2023-12-28T07:50:57;9.60;78.80
75621;DHT22;64574;48.506;-2.750;2023-12-28T07:53:23;9.50;78.60
75621;DHT22;64574;48.506;-2.750;2023-12-28T07:55:48;9.50;78.90
75621;DHT22;64574;48.506;-2.750;2023-12-28T07:58:15;9.50;78.90
75621;DHT22;64574;48.506;-2.750;2023-12-28T08:00:40;9.50;78.90
75621;DHT22;64574;48.506;-2.750;2023-12-28T08:03:06;9.50;79.00
75621;DHT22;64574;48.506;-2.750;2023-12-28T08:05:32;9.50;79.00
75621;DHT22;64574;48.506;-2.750;2023-12-28T08:07:57;9.50;79.10
75621;DHT22;64574;48.506;-2.750;2023-12-28T08:10:23;9.50;79.30
75621;DHT22;64574;48.506;-2.750;2023-12-28T08:12:48;9.50;79.20
75621;DHT22;64574;48.506;-2.750;2023-12-28T08:15:14;9.50;79.30
75621;DHT22;64574;48.506;-2.750;2023-12-28T08:17:40;9.50;79.40
75621;DHT22;64574;48.506;-2.750;2023-12-28T08:20:06;9.50;79.20
75621;DHT22;64574;48.506;-2.750;2023-12-28T08:22:32;9.50;79.30
75621;DHT22;64574;48.506;-2.750;2023-12-28T08:24:58;9.50;79.20
75621;DHT22;64574;48.506;-2.750;2023-12-28T08:27:23;9.50;79.20
75621;DHT22;64574;48.506;-2.750;2023-12-28T08:29:49;9.50;79.30
75621;DHT22;64574;48.506;-2.750;2023-12-28T08:32:15;9.50;79.20
75621;DHT22;64574;48.506;-2.750;2023-12-28T08:34:41;9.50;79.20
75621;DHT22;64574;48.506;-2.750;2023-12-28T08:37:07;9.60;79.10
75621;DHT22;64574;48.506;-2.750;2023-12-28T08:39:32;9.50;79.10
75621;DHT22;64574;48.506;-2.750;2023-12-28T08:41:58;9.60;79.20
75621;DHT22;64574;48.506;-2.750;2023-12-28T08:44:23;9.50;79.10
75621;DHT22;64574;48.506;-2.750;2023-12-28T08:46:49;9.60;79.10
75621;DHT22;64574;48.506;-2.750;2023-12-28T08:49:15;9.60;79.10
75621;DHT22;64574;48.506;-2.750;2023-12-28T08:51:41;9.60;79.10
75621;DHT22;64574;48.506;-2.750;2023-12-28T08:54:07;9.60;79.10
75621;DHT22;64574;48.506;-2.750;2023-12-28T08:56:34;9.60;79.00
75621;DHT22;64574;48.506;-2.750;2023-12-28T08:59:00;9.60;78.90
75621;DHT22;64574;48.506;-2.750;2023-12-28T09:01:26;9.70;78.60
75621;DHT22;64574;48.506;-2.750;2023-12-28T09:03:53;9.70;78.50
75621;DHT22;64574;48.506;-2.750;2023-12-28T09:06:20;9.70;78.10
75621;DHT22;64574;48.506;-2.750;2023-12-28T09:08:49;9.70;78.00
75621;DHT22;64574;48.506;-2.750;2023-12-28T09:11:16;9.70;78.00
75621;DHT22;64574;48.506;-2.750;2023-12-28T09:13:41;9.80;77.90
75621;DHT22;64574;48.506;-2.750;2023-12-28T09:16:14;9.70;77.80
75621;DHT22;64574;48.506;-2.750;2023-12-28T09:18:41;9.80;77.70
75621;DHT22;64574;48.506;-2.750;2023-12-28T09:21:07;9.80;77.50
75621;DHT22;64574;48.506;-2.750;2023-12-28T09:23:34;9.80;77.40
75621;DHT22;64574;48.506;-2.750;2023-12-28T09:26:06;9.80;77.30
75621;DHT22;64574;48.506;-2.750;2023-12-28T09:28:33;9.80;77.40
75621;DHT22;64574;48.506;-2.750;2023-12-28T09:31:00;9.90;77.40
75621;DHT22;64574;48.506;-2.750;2023-12-28T09:33:26;9.90;77.30
75621;DHT22;64574;48.506;-2.750;2023-12-28T09:35:51;10.00;77.50
75621;DHT22;64574;48.506;-2.750;2023-12-28T09:38:18;9.90;77.50
75621;DHT22;64574;48.506;-2.750;2023-12-28T09:40:44;10.00;77.60
75621;DHT22;64574;48.506;-2.750;2023-12-28T09:43:19;10.00;77.50
75621;DHT22;64574;48.506;-2.750;2023-12-28T09:45:50;10.00;77.60
75621;DHT22;64574;48.506;-2.750;2023-12-28T09:48:20;10.00;77.40
75621;DHT22;64574;48.506;-2.750;2023-12-28T09:50:54;10.00;77.40
75621;DHT22;64574;48.506;-2.750;2023-12-28T09:53:23;10.00;77.50
75621;DHT22;64574;48.506;-2.750;2023-12-28T09:55:49;10.00;77.50
75621;DHT22;64574;48.506;-2.750;2023-12-28T09:58:17;10.00;77.50
75621;DHT22;64574;48.506;-2.750;2023-12-28T10:00:45;10.10;77.50
75621;DHT22;64574;48.506;-2.750;2023-12-28T10:03:13;10.10;77.40
75621;DHT22;64574;48.506;-2.750;2023-12-28T10:05:40;10.10;77.40
75621;DHT22;64574;48.506;-2.750;2023-12-28T10:08:06;10.10;77.40
75621;DHT22;64574;48.506;-2.750;2023-12-28T10:10:32;10.10;77.30
75621;DHT22;64574;48.506;-2.750;2023-12-28T10:12:57;10.10;77.30
75621;DHT22;64574;48.506;-2.750;2023-12-28T10:15:23;10.10;77.40
75621;DHT22;64574;48.506;-2.750;2023-12-28T10:17:52;10.10;77.40
75621;DHT22;64574;48.506;-2.750;2023-12-28T10:20:17;10.20;77.30
75621;DHT22;64574;48.506;-2.750;2023-12-28T10:22:44;10.20;77.10
75621;DHT22;64574;48.506;-2.750;2023-12-28T10:25:10;10.20;77.20
75621;DHT22;64574;48.506;-2.750;2023-12-28T10:27:39;10.20;77.30
75621;DHT22;64574;48.506;-2.750;2023-12-28T10:30:08;10.20;77.30
75621;DHT22;64574;48.506;-2.750;2023-12-28T10:32:35;10.30;77.20
75621;DHT22;64574;48.506;-2.750;2023-12-28T10:35:01;10.30;77.20
75621;DHT22;64574;48.506;-2.750;2023-12-28T10:37:30;10.20;77.10
75621;DHT22;64574;48.506;-2.750;2023-12-28T10:39:59;10.20;77.20
75621;DHT22;64574;48.506;-2.750;2023-12-28T10:42:31;10.30;77.10
75621;DHT22;64574;48.506;-2.750;2023-12-28T10:45:04;10.30;77.20
75621;DHT22;64574;48.506;-2.750;2023-12-28T10:47:37;10.30;77.10
75621;DHT22;64574;48.506;-2.750;2023-12-28T10:50:05;10.40;76.90
75621;DHT22;64574;48.506;-2.750;2023-12-28T10:52:32;10.40;76.80
75621;DHT22;64574;48.506;-2.750;2023-12-28T10:55:30;10.40;76.90
75621;DHT22;64574;48.506;-2.750;2023-12-28T10:58:14;10.50;76.60
75621;DHT22;64574;48.506;-2.750;2023-12-28T11:00:53;10.50;76.10
75621;DHT22;64574;48.506;-2.750;2023-12-28T11:03:24;10.60;75.60
75621;DHT22;64574;48.506;-2.750;2023-12-28T11:05:52;10.60;75.40
75621;DHT22;64574;48.506;-2.750;2023-12-28T11:08:19;10.60;75.50
75621;DHT22;64574;48.506;-2.750;2023-12-28T11:10:47;10.70;75.00
75621;DHT22;64574;48.506;-2.750;2023-12-28T11:13:13;10.80;75.00
75621;DHT22;64574;48.506;-2.750;2023-12-28T11:15:41;10.90;74.30
75621;DHT22;64574;48.506;-2.750;2023-12-28T11:18:07;10.90;74.10
75621;DHT22;64574;48.506;-2.750;2023-12-28T11:20:33;10.90;74.20
75621;DHT22;64574;48.506;-2.750;2023-12-28T11:22:59;10.90;73.60
75621;DHT22;64574;48.506;-2.750;2023-12-28T11:25:31;11.00;72.90
75621;DHT22;64574;48.506;-2.750;2023-12-28T11:27:56;11.10;72.90
75621;DHT22;64574;48.506;-2.750;2023-12-28T11:30:26;11.20;72.50
75621;DHT22;64574;48.506;-2.750;2023-12-28T11:32:56;11.30;72.50
75621;DHT22;64574;48.506;-2.750;2023-12-28T11:35:23;11.40;72.30
75621;DHT22;64574;48.506;-2.750;2023-12-28T11:37:48;11.30;71.90
75621;DHT22;64574;48.506;-2.750;2023-12-28T11:40:19;11.30;71.60
75621;DHT22;64574;48.506;-2.750;2023-12-28T11:42:53;11.30;71.90
75621;DHT22;64574;48.506;-2.750;2023-12-28T11:45:20;11.30;71.60
75621;DHT22;64574;48.506;-2.750;2023-12-28T11:47:58;11.50;71.00
75621;DHT22;64574;48.506;-2.750;2023-12-28T11:50:25;11.50;70.50
75621;DHT22;64574;48.506;-2.750;2023-12-28T11:52:50;11.50;70.50
75621;DHT22;64574;48.506;-2.750;2023-12-28T11:55:23;11.60;70.50
75621;DHT22;64574;48.506;-2.750;2023-12-28T11:57:49;11.70;70.00
75621;DHT22;64574;48.506;-2.750;2023-12-28T12:00:15;11.70;70.00
75621;DHT22;64574;48.506;-2.750;2023-12-28T12:02:43;11.70;69.60
75621;DHT22;64574;48.506;-2.750;2023-12-28T12:05:10;11.70;69.20
75621;DHT22;64574;48.506;-2.750;2023-12-28T12:07:37;11.70;69.00
75621;DHT22;64574;48.506;-2.750;2023-12-28T12:10:03;11.80;68.60
75621;DHT22;64574;48.506;-2.750;2023-12-28T12:12:28;11.90;68.40
75621;DHT22;64574;48.506;-2.750;2023-12-28T12:14:54;11.90;67.90
75621;DHT22;64574;48.506;-2.750;2023-12-28T12:17:21;11.90;68.00
75621;DHT22;64574;48.506;-2.750;2023-12-28T12:19:47;11.90;67.90
75621;DHT22;64574;48.506;-2.750;2023-12-28T12:22:16;11.70;68.00
75621;DHT22;64574;48.506;-2.750;2023-12-28T12:24:44;11.70;68.40
75621;DHT22;64574;48.506;-2.750;2023-12-28T12:27:12;11.90;68.00
75621;DHT22;64574;48.506;-2.750;2023-12-28T12:29:37;11.90;67.60
75621;DHT22;64574;48.506;-2.750;2023-12-28T12:32:03;12.00;67.40
75621;DHT22;64574;48.506;-2.750;2023-12-28T12:34:29;12.00;67.80
75621;DHT22;64574;48.506;-2.750;2023-12-28T12:36:55;11.90;67.60
75621;DHT22;64574;48.506;-2.750;2023-12-28T12:39:23;11.90;67.90
75621;DHT22;64574;48.506;-2.750;2023-12-28T12:41:50;11.90;68.40
75621;DHT22;64574;48.506;-2.750;2023-12-28T12:44:18;11.80;68.70
75621;DHT22;64574;48.506;-2.750;2023-12-28T12:46:44;11.70;68.90
75621;DHT22;64574;48.506;-2.750;2023-12-28T12:49:10;11.90;68.10
75621;DHT22;64574;48.506;-2.750;2023-12-28T12:51:36;11.90;68.10
75621;DHT22;64574;48.506;-2.750;2023-12-28T12:54:02;11.90;67.90
75621;DHT22;64574;48.506;-2.750;2023-12-28T12:56:29;11.90;67.50
75621;DHT22;64574;48.506;-2.750;2023-12-28T12:58:56;11.90;67.70
75621;DHT22;64574;48.506;-2.750;2023-12-28T13:01:25;11.90;67.80
75621;DHT22;64574;48.506;-2.750;2023-12-28T13:03:51;11.90;67.30
75621;DHT22;64574;48.506;-2.750;2023-12-28T13:06:17;11.70;67.90
75621;DHT22;64574;48.506;-2.750;2023-12-28T13:08:43;11.70;68.30
75621;DHT22;64574;48.506;-2.750;2023-12-28T13:11:09;11.90;68.20
75621;DHT22;64574;48.506;-2.750;2023-12-28T13:13:35;11.90;68.30
75621;DHT22;64574;48.506;-2.750;2023-12-28T13:16:01;11.90;68.60
75621;DHT22;64574;48.506;-2.750;2023-12-28T13:18:27;11.90;68.20
75621;DHT22;64574;48.506;-2.750;2023-12-28T13:20:53;11.90;68.00
75621;DHT22;64574;48.506;-2.750;2023-12-28T13:23:19;11.90;67.40
75621;DHT22;64574;48.506;-2.750;2023-12-28T13:25:44;11.90;67.40
75621;DHT22;64574;48.506;-2.750;2023-12-28T13:28:10;11.90;67.80
75621;DHT22;64574;48.506;-2.750;2023-12-28T13:30:36;11.90;67.80
75621;DHT22;64574;48.506;-2.750;2023-12-28T13:33:06;11.90;67.80
75621;DHT22;64574;48.506;-2.750;2023-12-28T13:35:32;11.70;68.20
75621;DHT22;64574;48.506;-2.750;2023-12-28T13:38:00;11.60;68.50
75621;DHT22;64574;48.506;-2.750;2023-12-28T13:40:29;11.70;68.80
75621;DHT22;64574;48.506;-2.750;2023-12-28T13:42:56;11.70;68.50
75621;DHT22;64574;48.506;-2.750;2023-12-28T13:45:22;11.70;68.80
75621;DHT22;64574;48.506;-2.750;2023-12-28T13:47:48;11.80;68.80
75621;DHT22;64574;48.506;-2.750;2023-12-28T13:50:13;11.70;69.00
75621;DHT22;64574;48.506;-2.750;2023-12-28T13:52:39;11.70;69.20
75621;DHT22;64574;48.506;-2.750;2023-12-28T13:55:05;11.70;69.20
75621;DHT22;64574;48.506;-2.750;2023-12-28T13:57:31;11.70;69.10
75621;DHT22;64574;48.506;-2.750;2023-12-28T13:59:57;11.70;69.00
75621;DHT22;64574;48.506;-2.750;2023-12-28T14:02:26;11.70;68.70
75621;DHT22;64574;48.506;-2.750;2023-12-28T14:04:52;11.70;69.00
75621;DHT22;64574;48.506;-2.750;2023-12-28T14:07:19;11.60;69.50
75621;DHT22;64574;48.506;-2.750;2023-12-28T14:09:45;11.70;69.10
75621;DHT22;64574;48.506;-2.750;2023-12-28T14:12:10;11.70;69.10
75621;DHT22;64574;48.506;-2.750;2023-12-28T14:14:36;11.60;69.20
75621;DHT22;64574;48.506;-2.750;2023-12-28T14:17:01;11.60;69.40
75621;DHT22;64574;48.506;-2.750;2023-12-28T14:19:29;11.70;69.30
75621;DHT22;64574;48.506;-2.750;2023-12-28T14:21:56;11.70;69.00
75621;DHT22;64574;48.506;-2.750;2023-12-28T14:24:22;11.70;69.20
75621;DHT22;64574;48.506;-2.750;2023-12-28T14:26:48;11.70;69.20
75621;DHT22;64574;48.506;-2.750;2023-12-28T14:29:16;11.80;69.00
75621;DHT22;64574;48.506;-2.750;2023-12-28T14:31:42;11.80;69.10
75621;DHT22;64574;48.506;-2.750;2023-12-28T14:34:09;11.70;69.20
75621;DHT22;64574;48.506;-2.750;2023-12-28T14:36:36;11.70;69.50
75621;DHT22;64574;48.506;-2.750;2023-12-28T14:39:07;11.70;69.70
75621;DHT22;64574;48.506;-2.750;2023-12-28T14:41:37;11.70;69.80
75621;DHT22;64574;48.506;-2.750;2023-12-28T14:44:03;11.70;70.00
75621;DHT22;64574;48.506;-2.750;2023-12-28T14:46:29;11.70;69.80
75621;DHT22;64574;48.506;-2.750;2023-12-28T14:48:55;11.70;70.20
75621;DHT22;64574;48.506;-2.750;2023-12-28T14:51:21;11.60;70.50
75621;DHT22;64574;48.506;-2.750;2023-12-28T14:53:47;11.50;70.60
75621;DHT22;64574;48.506;-2.750;2023-12-28T14:56:13;11.50;70.80
75621;DHT22;64574;48.506;-2.750;2023-12-28T14:58:39;11.50;71.30
75621;DHT22;64574;48.506;-2.750;2023-12-28T15:01:05;11.50;71.60
75621;DHT22;64574;48.506;-2.750;2023-12-28T15:03:31;11.50;71.50
75621;DHT22;64574;48.506;-2.750;2023-12-28T15:05:56;11.40;71.70
75621;DHT22;64574;48.506;-2.750;2023-12-28T15:08:23;11.40;72.00
75621;DHT22;64574;48.506;-2.750;2023-12-28T15:10:49;11.40;71.80
75621;DHT22;64574;48.506;-2.750;2023-12-28T15:13:15;11.50;71.70
75621;DHT22;64574;48.506;-2.750;2023-12-28T15:15:42;11.50;71.20
75621;DHT22;64574;48.506;-2.750;2023-12-28T15:18:09;11.50;71.20
75621;DHT22;64574;48.506;-2.750;2023-12-28T15:20:35;11.50;71.10
75621;DHT22;64574;48.506;-2.750;2023-12-28T15:23:00;11.50;71.10